Decoded Metar for KAND (ANDERSEN in SC, USA) (IATA:AND) | Meteo·Mobile Aviation Weather
aviador You're here:

KAND Decoded Metar

ANDERSEN in SC, USA
Report Time2019-03-19 17:56:00
UTC Time2019-03-19 18:49:02
Flight Rules vfr VFR
Wind010° at 08 kt
W.Decomp.*RWY 35: 7.3 kt HW 3.4 kt RCW
RWY 05: 6.6 kt HW 4.6 kt LCW
W.Rank010° ranks 36
Current wind is above 010° avg. (4.4)
Visibility9999 m
Phenomena:N/A
Clouds:N/A
Expected CloudBase > 6,400 ft AGL from Temp-Dew spread
CeilingNone
Temp12°C (ISA -1)
Dew Point-4°C (33% RH)
AAT6.6°C
QNH1029 hPa
Density Alt141 ft
Elevation784 ft
Report Wrong Elevation
Raw Report
KAND 191756Z AUTO 01008KT 340V060 10SM CLR 12/M04 A3040 RMK AO2
SLP292 T01221039 10122 20028 56017 $=

Extra information for KAND:More info

Metar Taf Metar & Taf Last 4 Metars F.Rules Stats Wind Profile Meteogram Temp Stats Airport Information Weather charts Add Link Nearby VenuesMetar ALERT Operation Metar Decoded Social comments

AIRNAV info for KAND